Time;durP1;ratioP1;P1;durP2;ratioP2;P2;SDS_P1;SDS_P2;PMS_P1;PMS_P2;Temp;Humidity;BMP_temperature;BMP_pressure;BME280_temperature;BME280_humidity;BME280_pressure;Samples;Min_cycle;Max_cycle;Signal;HPM_P1;HPM_P2
2021/10/21 00:03:37;;;;;;;12.70;8.40;;;;;;;12.96;100.00;98731.78;10453989;28;20044;-78
2021/10/21 00:08:41;;;;;;;11.48;7.10;;;;;;;13.09;100.00;98742.66;10453867;28;20506;-80
2021/10/21 00:13:43;;;;;;;12.07;8.20;;;;;;;13.07;100.00;98728.88;10452304;28;20053;-80
2021/10/21 00:18:45;;;;;;;10.90;7.75;;;;;;;13.18;100.00;98688.72;10466232;28;20049;-82
2021/10/21 00:23:46;;;;;;;14.10;6.78;;;;;;;13.13;100.00;98646.44;10454922;28;20482;-81
2021/10/21 00:28:48;;;;;;;12.82;6.47;;;;;;;13.13;100.00;98609.25;10453083;28;20080;-81
2021/10/21 00:33:49;;;;;;;11.57;5.38;;;;;;;13.11;100.00;98585.94;10457841;28;20056;-81
2021/10/21 00:38:51;;;;;;;11.07;5.50;;;;;;;13.19;100.00;98560.56;10452689;28;20400;-80
2021/10/21 00:44:08;;;;;;;7.97;5.18;;;;;;;13.13;100.00;98552.16;10460728;28;20052;-80
2021/10/21 00:49:10;;;;;;;;;;;;;;;13.21;100.00;98529.41;10469952;28;20057;-80
2021/10/21 00:54:12;;;;;;;6.18;3.88;;;;;;;13.16;100.00;98526.94;10470085;28;19967;-78
2021/10/21 00:59:14;;;;;;;5.40;3.80;;;;;;;13.23;100.00;98497.31;10491917;28;20059;-79
2021/10/21 01:04:16;;;;;;;5.85;3.75;;;;;;;13.50;100.00;98468.66;10490647;28;20049;-79
2021/10/21 01:09:18;;;;;;;5.10;2.88;;;;;;;13.46;100.00;98503.44;10472134;28;20570;-79
2021/10/21 01:14:20;;;;;;;5.72;3.13;;;;;;;13.25;100.00;98494.66;10458743;28;20053;-80
2021/10/21 01:19:25;;;;;;;5.20;2.25;;;;;;;13.25;100.00;98484.25;10458514;28;20496;-79
2021/10/21 01:24:26;;;;;;;2.75;2.20;;;;;;;13.14;100.00;98494.13;10458259;28;20517;-79
2021/10/21 01:29:28;;;;;;;5.90;2.00;;;;;;;13.12;100.00;98476.00;10458095;28;20106;-80
2021/10/21 01:34:29;;;;;;;6.63;2.67;;;;;;;12.68;100.00;98545.78;10457599;28;20532;-80
2021/10/21 01:39:31;;;;;;;1.52;0.77;;;;;;;11.72;98.00;98542.50;10460034;28;20489;-79
2021/10/21 01:44:32;;;;;;;1.13;0.68;;;;;;;11.34;97.68;98521.06;10457404;28;20053;-78
2021/10/21 01:49:34;;;;;;;4.63;0.55;;;;;;;11.09;100.00;98518.28;10464679;28;20052;-78
2021/10/21 01:54:35;;;;;;;3.67;0.75;;;;;;;11.18;96.48;98535.31;10457675;28;20057;-78
2021/10/21 01:59:37;;;;;;;1.58;0.70;;;;;;;11.03;97.57;98528.78;10456922;28;20048;-79
2021/10/21 02:04:38;;;;;;;5.38;0.80;;;;;;;11.16;93.44;98517.22;10459399;28;20072;-79
2021/10/21 02:09:40;;;;;;;4.00;0.98;;;;;;;10.92;98.89;98512.66;10457727;28;20127;-78
2021/10/21 02:14:41;;;;;;;2.30;0.57;;;;;;;11.04;96.01;98502.00;10455819;28;20045;-78
2021/10/21 02:19:43;;;;;;;4.25;1.05;;;;;;;10.97;98.31;98500.47;10455641;28;20064;-78
2021/10/21 02:24:45;;;;;;;0.77;0.60;;;;;;;10.97;96.97;98495.28;10457155;28;20128;-79
2021/10/21 02:29:47;;;;;;;2.45;1.10;;;;;;;10.78;100.00;98477.66;10457132;28;20052;-79
2021/10/21 02:34:49;;;;;;;2.92;1.15;;;;;;;10.78;100.00;98472.47;10476586;28;20111;-78
2021/10/21 02:39:50;;;;;;;4.45;1.20;;;;;;;10.75;100.00;98469.94;10456412;28;20056;-78
2021/10/21 02:44:52;;;;;;;3.22;0.95;;;;;;;10.78;100.00;98471.63;10454983;28;20056;-78
2021/10/21 02:49:54;;;;;;;0.93;0.80;;;;;;;10.96;98.81;98462.56;10455291;28;20052;-77
2021/10/21 02:54:55;;;;;;;3.00;0.98;;;;;;;11.05;97.15;98459.72;10455802;28;20492;-78
2021/10/21 02:59:57;;;;;;;5.15;1.45;;;;;;;11.09;95.65;98440.66;10455942;28;20064;-80
2021/10/21 03:04:59;;;;;;;3.38;0.90;;;;;;;11.12;95.48;98441.41;10455975;28;20053;-79
2021/10/21 03:10:00;;;;;;;3.08;1.10;;;;;;;11.24;93.80;98444.56;10454542;28;20110;-79
2021/10/21 03:15:02;;;;;;;5.55;0.80;;;;;;;11.40;92.32;98451.00;10455351;28;20079;-78
2021/10/21 03:20:04;;;;;;;3.03;1.13;;;;;;;11.13;97.29;98460.38;10455193;28;20098;-79
2021/10/21 03:25:07;;;;;;;5.10;1.38;;;;;;;11.02;100.00;98444.28;10455285;28;20394;-78
2021/10/21 03:30:10;;;;;;;4.15;0.95;;;;;;;10.92;100.00;98443.66;10454243;28;20452;-80
2021/10/21 03:35:12;;;;;;;2.35;1.02;;;;;;;10.75;100.00;98441.50;10454383;28;20059;-78
2021/10/21 03:40:14;;;;;;;1.80;1.00;;;;;;;10.77;100.00;98455.22;10454957;28;20053;-78
2021/10/21 03:45:16;;;;;;;6.32;1.02;;;;;;;10.78;100.00;98459.53;10453405;28;20049;-78
2021/10/21 03:50:17;;;;;;;6.90;1.58;;;;;;;10.83;100.00;98441.31;10459220;28;20110;-78
2021/10/21 03:55:19;;;;;;;5.10;1.42;;;;;;;10.83;100.00;98454.22;10454388;28;20163;-78
2021/10/21 04:00:20;;;;;;;8.00;1.92;;;;;;;10.85;100.00;98455.06;10454689;28;20041;-77
2021/10/21 04:05:23;;;;;;;6.25;1.27;;;;;;;10.75;100.00;98458.75;10452513;28;20068;-78
2021/10/21 04:10:25;;;;;;;2.58;1.00;;;;;;;10.72;100.00;98454.53;10454967;28;20045;-77
2021/10/21 04:15:27;;;;;;;5.80;1.35;;;;;;;10.66;100.00;98452.06;10455708;28;20106;-77
2021/10/21 04:20:28;;;;;;;6.00;1.50;;;;;;;10.64;100.00;98446.09;10467725;28;20058;-78
2021/10/21 04:25:31;;;;;;;5.32;1.77;;;;;;;10.64;100.00;98453.00;10474783;28;20053;-78
2021/10/21 04:30:33;;;;;;;3.03;0.75;;;;;;;10.59;100.00;98446.19;10479346;28;20044;-77
2021/10/21 04:35:34;;;;;;;4.22;1.25;;;;;;;10.56;100.00;98442.84;10494608;28;20045;-77
2021/10/21 04:40:36;;;;;;;7.45;1.42;;;;;;;10.56;100.00;98450.63;10475118;28;20049;-78
2021/10/21 04:45:38;;;;;;;6.82;1.27;;;;;;;10.52;100.00;98455.00;10459807;28;20504;-77
2021/10/21 04:50:39;;;;;;;4.22;1.35;;;;;;;10.50;100.00;98449.03;10464415;28;20047;-77
2021/10/21 04:55:41;;;;;;;8.95;1.92;;;;;;;10.48;100.00;98465.44;10461379;28;20135;-77
2021/10/21 05:00:42;;;;;;;5.35;1.88;;;;;;;10.45;100.00;98473.28;10458207;28;20051;-77
2021/10/21 05:05:44;;;;;;;3.00;1.48;;;;;;;10.41;100.00;98489.72;10460374;28;20087;-77
2021/10/21 05:10:46;;;;;;;4.45;1.35;;;;;;;10.40;100.00;98504.41;10458963;28;20045;-77
2021/10/21 05:15:47;;;;;;;7.32;1.13;;;;;;;10.40;100.00;98506.13;10452870;28;20128;-78
2021/10/21 05:20:49;;;;;;;5.30;1.90;;;;;;;10.32;100.00;98527.84;10455250;28;20056;-81
2021/10/21 05:25:50;;;;;;;4.53;1.50;;;;;;;10.25;100.00;98564.16;10458840;28;20056;-81
2021/10/21 05:30:52;;;;;;;3.28;1.67;;;;;;;10.26;100.00;98583.94;10462441;28;20049;-81
2021/10/21 05:35:54;;;;;;;3.65;1.95;;;;;;;10.25;100.00;98628.75;10460074;28;20404;-79
2021/10/21 05:40:55;;;;;;;2.53;1.63;;;;;;;10.21;100.00;98720.97;10471537;28;20052;-81
2021/10/21 05:45:57;;;;;;;1.10;1.00;;;;;;;9.84;100.00;98749.16;10488720;28;20052;-78
2021/10/21 05:51:00;;;;;;;0.40;0.40;;;;;;;9.47;100.00;98818.56;10464332;28;20049;-78
2021/10/21 05:56:02;;;;;;;0.40;0.40;;;;;;;9.29;100.00;98866.09;10456158;28;20048;-78
2021/10/21 06:01:05;;;;;;;1.77;0.57;;;;;;;9.27;100.00;98917.72;10456528;28;20045;-78
2021/10/21 06:06:06;;;;;;;1.58;0.30;;;;;;;9.19;100.00;98953.09;10457839;28;20045;-77
2021/10/21 06:11:08;;;;;;;2.00;0.60;;;;;;;9.17;100.00;99013.28;10448532;28;20488;-76
2021/10/21 06:16:10;;;;;;;1.60;0.70;;;;;;;9.19;100.00;99039.91;10434646;28;20044;-78
2021/10/21 06:21:12;;;;;;;0.30;0.30;;;;;;;9.16;100.00;99092.41;10467255;28;20037;-77
2021/10/21 06:26:16;;;;;;;1.77;0.60;;;;;;;9.15;100.00;99115.66;10464053;28;20049;-78
2021/10/21 06:31:20;;;;;;;0.70;0.70;;;;;;;9.10;100.00;99156.94;10450942;28;20053;-77
2021/10/21 06:36:21;;;;;;;2.83;0.93;;;;;;;9.15;100.00;99181.00;10450987;28;20392;-78
2021/10/21 06:41:23;;;;;;;8.80;1.90;;;;;;;9.12;100.00;99206.81;10452062;28;20049;-78
2021/10/21 06:46:26;;;;;;;4.38;0.93;;;;;;;9.19;100.00;99230.84;10466860;28;20053;-79
2021/10/21 06:51:27;;;;;;;2.63;1.05;;;;;;;9.19;100.00;99264.38;10470872;28;20056;-79
2021/10/21 06:56:29;;;;;;;2.30;1.05;;;;;;;9.24;100.00;99294.44;10452460;28;20497;-79
2021/10/21 07:01:30;;;;;;;8.82;1.63;;;;;;;9.22;100.00;99324.56;10451908;28;20049;-78
2021/10/21 07:06:32;;;;;;;4.03;2.03;;;;;;;9.27;100.00;99338.31;10453962;28;20057;-79
2021/10/21 07:11:34;;;;;;;8.38;1.85;;;;;;;9.25;100.00;99352.09;10458370;28;20053;-80
2021/10/21 07:16:35;;;;;;;12.30;2.97;;;;;;;9.26;100.00;99375.31;10454013;28;20045;-80
2021/10/21 07:21:37;;;;;;;13.32;2.20;;;;;;;9.34;100.00;99410.53;10453418;28;20103;-79
2021/10/21 07:26:41;;;;;;;6.72;2.40;;;;;;;9.38;100.00;99444.09;10454214;28;20178;-79
2021/10/21 07:31:42;;;;;;;10.05;2.70;;;;;;;9.48;100.00;99470.72;10466064;28;20040;-78
2021/10/21 07:36:44;;;;;;;13.55;3.15;;;;;;;9.59;100.00;99496.47;10469480;28;20519;-78
2021/10/21 07:41:46;;;;;;;6.53;1.50;;;;;;;9.48;100.00;99519.78;10453923;28;20045;-78
2021/10/21 07:46:48;;;;;;;8.45;2.30;;;;;;;9.41;100.00;99536.97;10454606;28;20523;-80
2021/10/21 07:51:50;;;;;;;14.50;2.85;;;;;;;9.42;100.00;99567.13;10476313;28;20103;-78
2021/10/21 07:56:52;;;;;;;10.65;3.35;;;;;;;9.45;100.00;99581.72;10493566;28;20101;-79
2021/10/21 08:01:58;;;;;;;4.85;2.28;;;;;;;9.42;100.00;99600.66;10504458;28;20052;-78
2021/10/21 08:07:02;;;;;;;4.85;1.63;;;;;;;9.67;100.00;99605.78;10502939;28;20063;-79
2021/10/21 08:12:07;;;;;;;11.25;2.40;;;;;;;9.79;98.54;99641.91;10460513;28;20052;-79
2021/10/21 08:17:08;;;;;;;11.07;2.58;;;;;;;9.72;93.94;99630.75;10462180;28;20045;-77
2021/10/21 08:22:10;;;;;;;4.80;2.15;;;;;;;9.69;95.02;99653.13;10503819;28;20123;-77
2021/10/21 08:27:11;;;;;;;8.82;2.90;;;;;;;9.71;93.17;99641.94;10470553;28;20055;-77
2021/10/21 08:32:13;;;;;;;10.52;2.20;;;;;;;9.90;91.71;99668.59;10488633;28;20049;-76
2021/10/21 08:37:14;;;;;;;8.77;1.85;;;;;;;10.00;91.16;99684.94;10459801;28;20048;-76
2021/10/21 08:42:18;;;;;;;9.95;2.47;;;;;;;10.00;90.36;99703.91;10471531;28;20076;-77
2021/10/21 08:47:20;;;;;;;9.00;2.38;;;;;;;10.12;88.47;99721.09;10498153;28;20059;-76
2021/10/21 08:52:22;;;;;;;7.40;1.88;;;;;;;10.12;90.27;99746.09;10475687;28;20174;-76
2021/10/21 08:57:26;;;;;;;7.55;2.33;;;;;;;10.24;91.08;99756.44;10460889;28;20060;-78
2021/10/21 09:02:37;;;;;;;7.25;1.98;;;;;;;10.00;91.79;99777.97;10455210;28;20052;-77
2021/10/21 09:07:57;;;;;;;3.75;1.55;;;;;;;9.53;97.63;99815.81;10458819;28;20444;-78
2021/10/21 09:13:00;;;;;;;4.85;1.77;;;;;;;9.13;100.00;99835.47;10470743;28;20049;-78
2021/10/21 09:18:11;;;;;;;4.65;1.63;;;;;;;9.02;100.00;99831.97;10479715;28;20044;-79
2021/10/21 09:23:16;;;;;;;4.63;1.80;;;;;;;9.11;100.00;99834.56;10477595;28;20068;-78
2021/10/21 09:28:26;;;;;;;9.60;2.35;;;;;;;9.05;100.00;99846.59;10459054;28;20067;-78
2021/10/21 09:33:28;;;;;;;10.07;2.20;;;;;;;9.14;100.00;99857.81;10461727;28;20041;-78
2021/10/21 09:38:33;;;;;;;5.05;2.22;;;;;;;9.17;100.00;99851.81;10499740;28;20097;-77
2021/10/21 09:43:36;;;;;;;9.13;2.25;;;;;;;9.24;100.00;99869.88;10479640;28;20051;-77
2021/10/21 09:48:37;;;;;;;4.90;1.17;;;;;;;9.14;100.00;99878.47;10479226;28;20055;-78
2021/10/21 09:53:39;;;;;;;3.03;1.15;;;;;;;9.13;100.00;99889.66;10469121;28;20056;-78
2021/10/21 09:58:41;;;;;;;7.05;2.72;;;;;;;9.10;100.00;99891.34;10484279;28;20049;-79
2021/10/21 10:03:44;;;;;;;9.13;2.58;;;;;;;9.21;100.00;99894.84;10478425;28;20053;-78
2021/10/21 10:08:46;;;;;;;6.35;1.70;;;;;;;9.39;100.00;99901.78;10458044;28;20057;-78
2021/10/21 10:13:50;;;;;;;5.45;1.58;;;;;;;9.72;100.00;99899.34;10455957;28;20565;-78
2021/10/21 10:18:51;;;;;;;5.70;1.60;;;;;;;9.95;100.00;99908.88;10470022;28;20044;-77
2021/10/21 10:24:00;;;;;;;4.55;2.55;;;;;;;9.92;100.00;99908.84;10446364;28;20500;-76
2021/10/21 10:29:01;;;;;;;12.15;2.08;;;;;;;10.44;100.00;99914.13;10470215;28;20045;-76
2021/10/21 10:34:03;;;;;;;6.18;1.67;;;;;;;10.58;100.00;99914.97;10456445;28;20075;-76
2021/10/21 10:39:07;;;;;;;12.43;1.77;;;;;;;10.54;100.00;99916.69;10456842;28;20056;-75
2021/10/21 10:44:10;;;;;;;13.30;2.20;;;;;;;10.51;100.00;99923.59;10446708;28;20144;-75
2021/10/21 10:49:37;;;;;;;7.40;1.67;;;;;;;10.34;100.00;99926.19;10462466;28;20048;-76
2021/10/21 10:54:39;;;;;;;7.68;1.90;;;;;;;10.57;100.00;99946.88;10454967;28;20079;-76
2021/10/21 10:59:42;;;;;;;8.55;2.08;;;;;;;10.60;100.00;99937.38;10460105;28;20052;-76
2021/10/21 11:04:53;;;;;;;10.00;2.05;;;;;;;10.77;100.00;99958.06;10454121;28;20064;-76
2021/10/21 11:10:34;;;;;;;9.65;2.20;;;;;;;10.63;100.00;99977.91;10454216;28;20057;-76
2021/10/21 11:15:35;;;;;;;4.40;1.25;;;;;;;10.51;93.42;99967.56;10453877;28;20053;-75
2021/10/21 11:20:38;;;;;;;6.57;2.13;;;;;;;10.42;98.67;99983.06;10455441;28;20052;-73
2021/10/21 11:25:40;;;;;;;11.23;2.38;;;;;;;10.66;90.13;99984.78;10475375;28;20415;-73
2021/10/21 11:30:42;;;;;;;2.30;0.73;;;;;;;10.48;88.20;99983.06;10442486;28;20090;-74
2021/10/21 11:35:43;;;;;;;4.45;0.93;;;;;;;10.77;87.80;100006.34;10453906;28;20497;-72
2021/10/21 11:40:48;;;;;;;8.15;2.03;;;;;;;10.81;88.19;99990.84;10453203;28;20049;-73
2021/10/21 11:45:59;;;;;;;1.00;0.68;;;;;;;10.28;90.45;100076.13;10454605;28;20045;-73
2021/10/21 11:51:03;;;;;;;3.15;0.77;;;;;;;8.74;99.75;100097.44;10466767;28;20187;-74
2021/10/21 11:56:05;;;;;;;2.83;0.80;;;;;;;8.45;100.00;100127.16;10449203;28;20060;-74
2021/10/21 12:01:09;;;;;;;4.55;0.70;;;;;;;8.37;100.00;100149.41;10454129;28;20056;-75
2021/10/21 12:06:16;;;;;;;1.75;0.95;;;;;;;8.32;100.00;100154.47;10453670;28;20493;-75
2021/10/21 12:11:18;;;;;;;;;;;;;;;8.17;100.00;100174.91;10453068;28;20053;-74
2021/10/21 12:16:21;;;;;;;3.10;1.02;;;;;;;8.15;100.00;100180.00;10451316;28;19921;-73
2021/10/21 12:21:41;;;;;;;2.15;0.73;;;;;;;8.05;100.00;100195.31;10441861;28;20440;-73
2021/10/21 12:27:03;;;;;;;1.17;0.80;;;;;;;8.01;100.00;100207.31;10452356;28;20467;-73
2021/10/21 12:32:10;;;;;;;2.85;0.90;;;;;;;8.24;100.00;100210.19;10449535;28;20500;-73
2021/10/21 12:37:15;;;;;;;3.75;1.70;;;;;;;8.39;100.00;100217.28;10450693;28;20048;-74
2021/10/21 12:42:22;;;;;;;3.43;0.87;;;;;;;8.45;100.00;100227.69;10453608;28;20048;-73
2021/10/21 12:47:30;;;;;;;3.65;0.80;;;;;;;8.52;100.00;100236.38;10460738;28;20493;-73
2021/10/21 12:52:46;;;;;;;6.88;1.20;;;;;;;8.74;100.00;100244.41;10459115;28;20048;-73
2021/10/21 12:57:53;;;;;;;5.20;1.67;;;;;;;9.09;100.00;100262.00;10460671;28;20459;-72
2021/10/21 13:03:10;;;;;;;6.53;1.17;;;;;;;8.98;100.00;100291.97;10459938;28;20090;-73
2021/10/21 13:08:12;;;;;;;5.72;1.20;;;;;;;8.92;100.00;100312.53;10458547;28;20049;-73
2021/10/21 13:13:28;;;;;;;3.45;1.08;;;;;;;8.65;100.00;100310.47;10458251;28;20055;-75
2021/10/21 13:18:31;;;;;;;3.60;2.08;;;;;;;8.62;100.00;100331.03;10459235;28;20068;-74
2021/10/21 13:23:34;;;;;;;3.03;1.27;;;;;;;8.69;100.00;100330.28;10457329;28;20049;-74
2021/10/21 13:28:35;;;;;;;2.67;0.65;;;;;;;8.65;100.00;100341.41;10457663;28;20053;-74
2021/10/21 13:33:37;;;;;;;2.40;0.90;;;;;;;8.59;100.00;100360.22;10473700;28;20053;-74
2021/10/21 13:38:38;;;;;;;1.23;0.85;;;;;;;8.66;100.00;100387.81;10460479;28;20059;-74
2021/10/21 13:43:41;;;;;;;3.90;1.13;;;;;;;8.68;100.00;100422.25;10458537;28;20049;-73
2021/10/21 13:48:42;;;;;;;2.40;1.17;;;;;;;8.55;100.00;100422.03;10494384;28;20052;-74
2021/10/21 13:53:44;;;;;;;4.97;1.25;;;;;;;8.35;100.00;100425.13;10461606;28;20052;-74
2021/10/21 13:58:45;;;;;;;5.32;1.55;;;;;;;8.36;100.00;100432.03;10456972;28;20053;-73
2021/10/21 14:03:47;;;;;;;5.15;1.83;;;;;;;8.39;100.00;100449.25;10485150;28;20044;-74
2021/10/21 14:08:49;;;;;;;3.00;1.50;;;;;;;8.45;100.00;100462.25;10497856;28;20550;-74
2021/10/21 14:13:50;;;;;;;5.05;0.98;;;;;;;8.50;100.00;100483.81;10497753;28;20063;-75
2021/10/21 14:18:52;;;;;;;9.65;2.22;;;;;;;8.52;100.00;100505.34;10498707;28;20059;-74
2021/10/21 14:23:53;;;;;;;8.15;1.60;;;;;;;8.70;100.00;100492.75;10499523;28;20097;-73
2021/10/21 14:28:55;;;;;;;10.82;1.65;;;;;;;8.76;100.00;100498.03;10478466;28;20056;-73
2021/10/21 14:33:56;;;;;;;16.77;3.08;;;;;;;8.85;100.00;100506.75;10456501;28;20051;-74
2021/10/21 14:38:58;;;;;;;9.93;2.03;;;;;;;8.80;100.00;100505.81;10495918;28;20055;-73
2021/10/21 14:44:01;;;;;;;13.80;2.80;;;;;;;8.85;100.00;100532.53;10461642;28;20055;-73
2021/10/21 14:49:04;;;;;;;5.35;2.13;;;;;;;8.70;100.00;100541.75;10464600;28;20053;-73
2021/10/21 14:54:05;;;;;;;7.78;2.63;;;;;;;8.68;100.00;100545.16;10456165;28;20460;-73
2021/10/21 14:59:07;;;;;;;11.40;2.50;;;;;;;8.73;100.00;100552.13;10455774;28;20045;-73
2021/10/21 15:04:09;;;;;;;8.43;2.42;;;;;;;8.77;100.00;100565.94;10455852;28;20045;-73
2021/10/21 15:15:30;;;;;;;11.02;2.38;;;;;;;8.62;100.00;100588.88;10369080;28;20046;-73
2021/10/21 15:25:51;;;;;;;9.07;1.85;;;;;;;8.42;100.00;100619.44;10454783;28;20401;-73
2021/10/21 15:30:54;;;;;;;3.92;1.55;;;;;;;8.43;100.00;100634.06;10453572;28;20049;-72
2021/10/21 15:35:55;;;;;;;14.48;3.22;;;;;;;8.49;100.00;100632.47;10451484;28;20053;-73
2021/10/21 15:40:57;;;;;;;9.55;1.90;;;;;;;8.43;100.00;100665.00;10453594;28;20099;-72
2021/10/21 15:46:13;;;;;;;0.55;0.35;;;;;;;8.28;100.00;100650.03;10456813;28;20056;-73
2021/10/21 15:51:47;;;;;;;10.77;3.07;;;;;;;8.22;95.97;100647.34;10471460;28;20084;-74
2021/10/21 16:12:48;;;;;;;12.70;4.28;;;;;;;7.98;94.31;100705.22;10457025;28;20045;-73
2021/10/21 16:17:55;;;;;;;16.05;3.80;;;;;;;7.79;97.42;100715.94;10462407;28;20455;-72
2021/10/21 16:23:16;;;;;;;13.73;3.35;;;;;;;7.78;95.10;100727.06;10457934;28;20104;-71
2021/10/21 16:28:18;;;;;;;11.85;3.55;;;;;;;7.53;97.70;100741.03;10480408;28;20080;-72
2021/10/21 16:33:19;;;;;;;11.05;3.25;;;;;;;7.33;100.00;100760.25;10480463;28;20049;-71
2021/10/21 16:38:21;;;;;;;16.30;4.25;;;;;;;7.37;96.33;100770.66;10453397;28;20049;-72
2021/10/21 16:43:27;;;;;;;12.15;3.85;;;;;;;7.22;100.00;100777.97;10460571;28;20096;-72
2021/10/21 16:48:29;;;;;;;14.10;3.50;;;;;;;6.98;97.69;100790.13;10460249;28;20052;-72
2021/10/21 16:53:31;;;;;;;16.35;4.38;;;;;;;7.17;93.40;100793.28;10466014;28;20041;-72
2021/10/21 16:58:35;;;;;;;12.95;3.65;;;;;;;6.98;92.16;100810.72;10474163;28;20052;-75
2021/10/21 17:03:37;;;;;;;11.50;3.90;;;;;;;6.98;89.93;100813.28;10464847;28;20045;-74
2021/10/21 17:08:38;;;;;;;9.82;2.83;;;;;;;6.75;93.67;100825.47;10458753;28;20064;-72
2021/10/21 17:13:40;;;;;;;7.93;3.40;;;;;;;6.64;94.87;100835.44;10458535;28;20049;-72
2021/10/21 17:18:41;;;;;;;16.23;4.03;;;;;;;6.59;92.90;100845.59;10476777;28;20064;-72
2021/10/21 17:23:43;;;;;;;14.38;3.20;;;;;;;6.59;94.66;100855.00;10462846;28;20049;-72
2021/10/21 17:28:45;;;;;;;15.77;4.22;;;;;;;6.46;95.58;100861.44;10458073;28;20056;-72
2021/10/21 17:33:47;;;;;;;11.70;3.40;;;;;;;6.39;96.67;100872.34;10433619;28;20505;-72
2021/10/21 17:38:49;;;;;;;13.68;3.20;;;;;;;6.25;100.00;100879.63;10444527;28;20045;-72
2021/10/21 17:43:51;;;;;;;12.48;3.33;;;;;;;6.11;100.00;100896.25;10458671;28;20045;-72
2021/10/21 17:48:53;;;;;;;12.40;4.32;;;;;;;6.03;99.86;100911.41;10449414;28;20048;-72
2021/10/21 17:53:54;;;;;;;13.13;2.78;;;;;;;5.83;100.00;100925.22;10456799;28;20444;-72
2021/10/21 17:58:59;;;;;;;11.40;2.92;;;;;;;5.93;100.00;100937.59;10455096;28;20045;-73
2021/10/21 18:04:04;;;;;;;9.77;2.60;;;;;;;5.87;100.00;100954.44;10451401;28;20482;-74
2021/10/21 18:09:13;;;;;;;6.75;2.55;;;;;;;5.90;100.00;100975.97;10456055;28;20103;-73
2021/10/21 18:14:17;;;;;;;13.30;3.15;;;;;;;5.92;100.00;100986.31;10445767;28;20080;-73
2021/10/21 18:19:19;;;;;;;14.15;3.28;;;;;;;5.84;100.00;100975.72;10433175;28;20052;-74
2021/10/21 18:24:20;;;;;;;12.30;3.88;;;;;;;5.65;100.00;100999.84;10441913;28;20055;-73
2021/10/21 18:29:27;;;;;;;15.48;2.92;;;;;;;5.73;100.00;101010.38;10454442;28;20055;-72
2021/10/21 18:34:30;;;;;;;14.27;3.63;;;;;;;5.53;100.00;101005.41;10455135;28;20045;-75
2021/10/21 18:39:35;;;;;;;12.85;3.10;;;;;;;5.55;100.00;101002.88;10456483;28;20045;-72
2021/10/21 18:44:37;;;;;;;13.25;3.88;;;;;;;5.55;100.00;101021.72;10455885;28;20041;-74
2021/10/21 18:49:40;;;;;;;14.10;3.55;;;;;;;5.37;100.00;101025.28;10461982;28;20053;-73
2021/10/21 18:54:42;;;;;;;15.05;3.58;;;;;;;5.36;100.00;101044.94;10476556;28;20043;-73
2021/10/21 18:59:51;;;;;;;11.30;3.25;;;;;;;5.36;100.00;101052.63;10489411;28;20087;-72
2021/10/21 19:04:53;;;;;;;8.38;2.80;;;;;;;5.32;100.00;101049.06;10468791;28;20493;-73
2021/10/21 19:09:57;;;;;;;20.45;4.93;;;;;;;5.18;100.00;101046.78;10452903;28;20060;-72
2021/10/21 19:14:59;;;;;;;14.15;3.13;;;;;;;5.32;100.00;101058.44;10444869;28;20143;-72
2021/10/21 19:20:06;;;;;;;15.27;3.50;;;;;;;5.33;100.00;101065.31;10465482;28;20045;-72
2021/10/21 19:25:09;;;;;;;10.85;3.40;;;;;;;5.33;100.00;101080.72;10445465;28;20036;-72
2021/10/21 19:30:13;;;;;;;11.48;4.03;;;;;;;5.16;100.00;101066.34;10461588;28;20045;-73
2021/10/21 19:35:21;;;;;;;8.13;3.13;;;;;;;5.24;100.00;101091.50;10456903;28;20080;-73
2021/10/21 19:51:16;;;;;;;10.80;3.30;;;;;;;5.38;100.00;101097.16;10523382;27;3055093;-76
2021/10/21 19:56:18;;;;;;;10.43;3.42;;;;;;;5.32;100.00;101109.75;10597764;28;20399;-76
2021/10/21 20:01:20;;;;;;;5.75;2.50;;;;;;;5.22;100.00;101105.97;10602708;28;20086;-77
2021/10/21 20:06:22;;;;;;;7.82;3.22;;;;;;;5.13;100.00;101105.56;10578916;28;20043;-74
2021/10/21 20:11:23;;;;;;;9.30;2.95;;;;;;;5.03;100.00;101131.63;10615359;28;20051;-75
2021/10/21 20:16:25;;;;;;;10.15;3.78;;;;;;;5.02;100.00;101128.19;10616093;27;20054;-75
2021/10/21 20:21:27;;;;;;;8.65;3.33;;;;;;;5.17;100.00;101135.66;10587792;28;20136;-75
2021/10/21 20:26:30;;;;;;;11.52;3.53;;;;;;;5.39;100.00;101144.22;10569117;28;20086;-75
2021/10/21 20:31:31;;;;;;;16.08;3.10;;;;;;;5.52;100.00;101152.47;10601414;28;20055;-75
2021/10/21 20:36:33;;;;;;;15.98;3.80;;;;;;;5.61;100.00;101161.34;10610388;28;20086;-75
2021/10/21 20:41:36;;;;;;;11.05;3.45;;;;;;;5.49;100.00;101174.56;10613194;28;20513;-75
2021/10/21 20:46:38;;;;;;;8.20;3.50;;;;;;;5.45;100.00;101181.28;10611965;27;20055;-75
2021/10/21 20:51:39;;;;;;;18.92;3.38;;;;;;;5.53;100.00;101187.59;10595268;28;20437;-76
2021/10/21 20:56:41;;;;;;;9.32;2.95;;;;;;;5.54;100.00;101196.16;10570621;28;20047;-76
2021/10/21 21:01:43;;;;;;;10.00;2.70;;;;;;;5.55;100.00;101201.34;10547116;28;20059;-75
2021/10/21 21:06:44;;;;;;;9.75;3.35;;;;;;;5.67;100.00;101215.47;10540887;28;20055;-75
2021/10/21 21:11:46;;;;;;;9.27;3.53;;;;;;;5.73;100.00;101208.94;10574639;28;20043;-76
2021/10/21 21:16:48;;;;;;;13.18;4.20;;;;;;;5.76;100.00;101206.47;10583056;28;20112;-76
2021/10/21 21:21:49;;;;;;;9.48;3.17;;;;;;;5.83;100.00;101210.16;10547783;28;20411;-76
2021/10/21 21:26:51;;;;;;;15.52;3.45;;;;;;;5.98;100.00;101213.38;10544765;28;20618;-75
2021/10/21 21:31:54;;;;;;;10.38;3.42;;;;;;;5.98;100.00;101220.19;10575677;28;20047;-75
2021/10/21 21:36:56;;;;;;;25.27;3.22;;;;;;;5.97;100.00;101213.31;10582349;28;20051;-76
2021/10/21 21:41:59;;;;;;;12.23;2.58;;;;;;;5.93;100.00;101201.16;10583019;28;20066;-76
2021/10/21 21:47:00;;;;;;;8.40;3.20;;;;;;;5.82;100.00;101219.53;10581611;28;20052;-76
2021/10/21 21:52:03;;;;;;;8.88;2.15;;;;;;;5.89;100.00;101217.22;10552644;28;20047;-76
2021/10/21 21:57:05;;;;;;;5.82;2.10;;;;;;;5.80;100.00;101221.19;10540561;28;20064;-76
2021/10/21 22:02:08;;;;;;;7.10;2.15;;;;;;;5.84;100.00;101214.47;10552577;28;20051;-76
2021/10/21 22:07:10;;;;;;;9.93;2.05;;;;;;;5.80;100.00;101212.63;10580245;28;20513;-76
2021/10/21 22:12:22;;;;;;;15.68;2.42;;;;;;;5.74;100.00;101232.91;10579837;28;20117;-76
2021/10/21 22:17:24;;;;;;;12.70;2.65;;;;;;;5.68;100.00;101246.38;10580141;28;20471;-76
2021/10/21 22:22:26;;;;;;;11.48;2.53;;;;;;;5.88;100.00;101260.00;10540967;28;20044;-76
2021/10/21 22:27:27;;;;;;;9.27;2.03;;;;;;;5.96;100.00;101266.38;10543169;28;20048;-76
2021/10/21 22:32:29;;;;;;;5.18;1.80;;;;;;;5.94;100.00;101255.13;10554177;28;20056;-76
2021/10/21 22:37:33;;;;;;;10.43;2.75;;;;;;;5.89;100.00;101241.19;10551305;28;20055;-75
2021/10/21 22:42:37;;;;;;;8.18;2.47;;;;;;;6.04;100.00;101233.28;10538284;28;20445;-76
2021/10/21 22:47:39;;;;;;;8.50;2.13;;;;;;;5.98;100.00;101233.03;10538201;28;20197;-75
2021/10/21 22:52:40;;;;;;;6.97;2.60;;;;;;;5.98;100.00;101245.88;10537664;28;20515;-76
2021/10/21 22:57:51;;;;;;;11.30;2.53;;;;;;;5.92;100.00;101253.34;10536777;28;20097;-76
2021/10/21 23:02:59;;;;;;;8.88;2.70;;;;;;;5.99;100.00;101242.47;10537656;28;20058;-76
2021/10/21 23:08:04;;;;;;;9.98;3.17;;;;;;;5.97;100.00;101234.72;10537254;28;20043;-75
2021/10/21 23:13:07;;;;;;;8.00;2.53;;;;;;;5.82;100.00;101236.66;10537200;28;20044;-75
2021/10/21 23:18:11;;;;;;;10.13;2.40;;;;;;;5.61;100.00;101240.91;10569112;28;20075;-76
2021/10/21 23:23:12;;;;;;;11.52;3.03;;;;;;;5.70;100.00;101243.84;10536626;28;20052;-76
2021/10/21 23:28:14;;;;;;;7.40;2.20;;;;;;;5.68;100.00;101255.75;10541420;28;20138;-76
2021/10/21 23:33:16;;;;;;;11.85;2.85;;;;;;;5.61;100.00;101246.91;10537243;28;20423;-76
2021/10/21 23:38:20;;;;;;;5.90;1.90;;;;;;;5.59;100.00;101234.00;10535332;28;20083;-75
2021/10/21 23:43:22;;;;;;;7.75;2.28;;;;;;;5.59;100.00;101236.59;10535986;28;20056;-75
2021/10/21 23:48:24;;;;;;;8.48;2.58;;;;;;;5.54;100.00;101235.50;10536093;28;20075;-75
2021/10/21 23:53:25;;;;;;;7.57;1.83;;;;;;;5.67;100.00;101242.03;10537553;28;20058;-75